sensor_id;sensor_type;location;lat;lon;timestamp;temperature;humidity
16666;DHT22;8446;50.998;6.250;2023-09-19T00:00:56;15.10;99.90
16666;DHT22;8446;50.998;6.250;2023-09-19T00:03:23;15.10;99.90
16666;DHT22;8446;50.998;6.250;2023-09-19T00:05:52;15.10;99.90
16666;DHT22;8446;50.998;6.250;2023-09-19T00:08:21;15.10;99.90
16666;DHT22;8446;50.998;6.250;2023-09-19T00:10:50;15.20;99.90
16666;DHT22;8446;50.998;6.250;2023-09-19T00:13:18;15.30;99.90
16666;DHT22;8446;50.998;6.250;2023-09-19T00:15:46;15.30;99.90
16666;DHT22;8446;50.998;6.250;2023-09-19T00:18:15;15.30;99.90
16666;DHT22;8446;50.998;6.250;2023-09-19T00:20:42;15.40;99.90
16666;DHT22;8446;50.998;6.250;2023-09-19T00:23:14;15.30;99.90
16666;DHT22;8446;50.998;6.250;2023-09-19T00:25:42;15.40;99.90
16666;DHT22;8446;50.998;6.250;2023-09-19T00:28:09;15.30;99.90
16666;DHT22;8446;50.998;6.250;2023-09-19T00:30:37;15.40;99.90
16666;DHT22;8446;50.998;6.250;2023-09-19T00:33:04;15.30;99.90
16666;DHT22;8446;50.998;6.250;2023-09-19T00:35:33;15.30;99.90
16666;DHT22;8446;50.998;6.250;2023-09-19T00:38:00;15.40;99.90
16666;DHT22;8446;50.998;6.250;2023-09-19T00:40:30;15.40;99.90
16666;DHT22;8446;50.998;6.250;2023-09-19T00:42:58;15.40;99.90
16666;DHT22;8446;50.998;6.250;2023-09-19T00:45:26;15.40;99.90
16666;DHT22;8446;50.998;6.250;2023-09-19T00:47:54;15.40;99.90
16666;DHT22;8446;50.998;6.250;2023-09-19T00:50:24;15.40;99.90
16666;DHT22;8446;50.998;6.250;2023-09-19T00:52:54;15.30;99.90
16666;DHT22;8446;50.998;6.250;2023-09-19T00:55:23;15.20;99.90
16666;DHT22;8446;50.998;6.250;2023-09-19T00:57:52;15.20;99.90
16666;DHT22;8446;50.998;6.250;2023-09-19T01:00:21;15.10;99.90
16666;DHT22;8446;50.998;6.250;2023-09-19T01:02:49;15.20;99.90
16666;DHT22;8446;50.998;6.250;2023-09-19T01:05:16;15.10;99.90
16666;DHT22;8446;50.998;6.250;2023-09-19T01:07:44;15.10;99.90
16666;DHT22;8446;50.998;6.250;2023-09-19T01:10:12;15.10;99.90
16666;DHT22;8446;50.998;6.250;2023-09-19T01:12:47;15.10;99.90
16666;DHT22;8446;50.998;6.250;2023-09-19T01:15:22;15.10;99.90
16666;DHT22;8446;50.998;6.250;2023-09-19T01:17:59;15.00;99.90
16666;DHT22;8446;50.998;6.250;2023-09-19T01:20:37;15.00;99.90
16666;DHT22;8446;50.998;6.250;2023-09-19T01:23:14;15.00;99.90
16666;DHT22;8446;50.998;6.250;2023-09-19T01:26:04;14.90;99.90
16666;DHT22;8446;50.998;6.250;2023-09-19T01:28:43;14.90;99.90
16666;DHT22;8446;50.998;6.250;2023-09-19T01:31:14;14.80;99.90
16666;DHT22;8446;50.998;6.250;2023-09-19T01:33:55;14.90;99.90
16666;DHT22;8446;50.998;6.250;2023-09-19T01:36:25;14.90;99.90
16666;DHT22;8446;50.998;6.250;2023-09-19T01:38:53;14.80;99.90
16666;DHT22;8446;50.998;6.250;2023-09-19T01:41:26;14.80;99.90
16666;DHT22;8446;50.998;6.250;2023-09-19T01:43:54;14.80;99.90
16666;DHT22;8446;50.998;6.250;2023-09-19T01:46:25;14.70;99.90
16666;DHT22;8446;50.998;6.250;2023-09-19T01:49:07;14.80;99.90
16666;DHT22;8446;50.998;6.250;2023-09-19T01:51:42;14.70;99.90
16666;DHT22;8446;50.998;6.250;2023-09-19T01:54:12;14.70;99.90
16666;DHT22;8446;50.998;6.250;2023-09-19T01:56:59;14.60;99.90
16666;DHT22;8446;50.998;6.250;2023-09-19T01:59:35;14.60;99.90
16666;DHT22;8446;50.998;6.250;2023-09-19T02:02:07;14.60;99.90
16666;DHT22;8446;50.998;6.250;2023-09-19T02:04:34;14.50;99.90
16666;DHT22;8446;50.998;6.250;2023-09-19T02:07:02;14.50;99.90
16666;DHT22;8446;50.998;6.250;2023-09-19T02:09:31;14.50;99.90
16666;DHT22;8446;50.998;6.250;2023-09-19T02:11:58;14.50;99.90
16666;DHT22;8446;50.998;6.250;2023-09-19T02:14:25;14.40;99.90
16666;DHT22;8446;50.998;6.250;2023-09-19T02:16:53;14.40;99.90
16666;DHT22;8446;50.998;6.250;2023-09-19T02:19:21;14.40;99.90
16666;DHT22;8446;50.998;6.250;2023-09-19T02:21:48;14.30;99.90
16666;DHT22;8446;50.998;6.250;2023-09-19T02:24:15;14.40;99.90
16666;DHT22;8446;50.998;6.250;2023-09-19T02:26:42;14.30;99.90
16666;DHT22;8446;50.998;6.250;2023-09-19T02:29:09;14.40;99.90
16666;DHT22;8446;50.998;6.250;2023-09-19T02:31:38;14.50;99.90
16666;DHT22;8446;50.998;6.250;2023-09-19T02:34:08;14.40;99.90
16666;DHT22;8446;50.998;6.250;2023-09-19T02:36:36;14.30;99.90
16666;DHT22;8446;50.998;6.250;2023-09-19T02:39:03;14.20;99.90
16666;DHT22;8446;50.998;6.250;2023-09-19T02:41:33;14.20;99.90
16666;DHT22;8446;50.998;6.250;2023-09-19T02:44:00;14.30;99.90
16666;DHT22;8446;50.998;6.250;2023-09-19T02:46:27;14.20;99.90
16666;DHT22;8446;50.998;6.250;2023-09-19T02:48:54;14.20;99.90
16666;DHT22;8446;50.998;6.250;2023-09-19T02:51:21;14.30;99.90
16666;DHT22;8446;50.998;6.250;2023-09-19T02:53:49;14.30;99.90
16666;DHT22;8446;50.998;6.250;2023-09-19T02:56:17;14.20;99.90
16666;DHT22;8446;50.998;6.250;2023-09-19T02:58:45;14.20;99.90
16666;DHT22;8446;50.998;6.250;2023-09-19T03:01:12;14.20;99.90
16666;DHT22;8446;50.998;6.250;2023-09-19T03:03:40;14.10;99.90
16666;DHT22;8446;50.998;6.250;2023-09-19T03:06:07;14.20;99.90
16666;DHT22;8446;50.998;6.250;2023-09-19T03:08:34;14.10;99.90
16666;DHT22;8446;50.998;6.250;2023-09-19T03:11:05;14.00;99.90
16666;DHT22;8446;50.998;6.250;2023-09-19T03:13:33;14.00;99.90
16666;DHT22;8446;50.998;6.250;2023-09-19T03:16:01;14.10;99.90
16666;DHT22;8446;50.998;6.250;2023-09-19T03:18:31;14.20;99.90
16666;DHT22;8446;50.998;6.250;2023-09-19T03:20:58;14.20;99.90
16666;DHT22;8446;50.998;6.250;2023-09-19T03:23:27;14.00;99.90
16666;DHT22;8446;50.998;6.250;2023-09-19T03:25:54;14.00;99.90
16666;DHT22;8446;50.998;6.250;2023-09-19T03:28:22;14.10;99.90
16666;DHT22;8446;50.998;6.250;2023-09-19T03:31:00;14.10;99.90
16666;DHT22;8446;50.998;6.250;2023-09-19T03:33:27;14.10;99.90
16666;DHT22;8446;50.998;6.250;2023-09-19T03:35:54;14.20;99.90
16666;DHT22;8446;50.998;6.250;2023-09-19T03:38:23;14.10;99.90
16666;DHT22;8446;50.998;6.250;2023-09-19T03:40:50;14.00;99.90
16666;DHT22;8446;50.998;6.250;2023-09-19T03:43:17;14.10;99.90
16666;DHT22;8446;50.998;6.250;2023-09-19T03:45:46;14.00;99.90
16666;DHT22;8446;50.998;6.250;2023-09-19T03:48:13;14.10;99.90
16666;DHT22;8446;50.998;6.250;2023-09-19T03:50:40;13.90;99.90
16666;DHT22;8446;50.998;6.250;2023-09-19T03:53:06;14.00;99.90
16666;DHT22;8446;50.998;6.250;2023-09-19T03:55:33;13.90;99.90
16666;DHT22;8446;50.998;6.250;2023-09-19T03:58:01;13.90;99.90
16666;DHT22;8446;50.998;6.250;2023-09-19T04:00:29;13.90;99.90
16666;DHT22;8446;50.998;6.250;2023-09-19T04:02:57;13.90;99.90
16666;DHT22;8446;50.998;6.250;2023-09-19T04:05:26;14.00;99.90
16666;DHT22;8446;50.998;6.250;2023-09-19T04:07:53;13.80;99.90
16666;DHT22;8446;50.998;6.250;2023-09-19T04:10:20;14.00;99.90
16666;DHT22;8446;50.998;6.250;2023-09-19T04:12:53;13.90;99.90
16666;DHT22;8446;50.998;6.250;2023-09-19T04:15:20;13.80;99.90
16666;DHT22;8446;50.998;6.250;2023-09-19T04:17:48;13.90;99.90
16666;DHT22;8446;50.998;6.250;2023-09-19T04:20:17;13.90;99.90
16666;DHT22;8446;50.998;6.250;2023-09-19T04:22:45;13.80;99.90
16666;DHT22;8446;50.998;6.250;2023-09-19T04:25:12;13.90;99.90
16666;DHT22;8446;50.998;6.250;2023-09-19T04:27:40;13.80;99.90
16666;DHT22;8446;50.998;6.250;2023-09-19T04:30:08;13.70;99.90
16666;DHT22;8446;50.998;6.250;2023-09-19T04:32:37;13.70;99.90
16666;DHT22;8446;50.998;6.250;2023-09-19T04:35:06;13.90;99.90
16666;DHT22;8446;50.998;6.250;2023-09-19T04:37:37;13.80;99.90
16666;DHT22;8446;50.998;6.250;2023-09-19T04:40:07;13.80;99.90
16666;DHT22;8446;50.998;6.250;2023-09-19T04:42:39;13.80;99.90
16666;DHT22;8446;50.998;6.250;2023-09-19T04:45:07;13.70;99.90
16666;DHT22;8446;50.998;6.250;2023-09-19T04:47:35;13.60;99.90
16666;DHT22;8446;50.998;6.250;2023-09-19T04:50:07;13.80;99.90
16666;DHT22;8446;50.998;6.250;2023-09-19T04:52:39;13.70;99.90
16666;DHT22;8446;50.998;6.250;2023-09-19T04:55:08;13.70;99.90
16666;DHT22;8446;50.998;6.250;2023-09-19T04:57:35;13.80;99.90
16666;DHT22;8446;50.998;6.250;2023-09-19T05:00:03;13.90;99.90
16666;DHT22;8446;50.998;6.250;2023-09-19T05:02:37;14.00;99.90
16666;DHT22;8446;50.998;6.250;2023-09-19T05:05:05;14.00;99.90
16666;DHT22;8446;50.998;6.250;2023-09-19T05:07:33;14.00;99.90
16666;DHT22;8446;50.998;6.250;2023-09-19T05:10:02;13.90;99.90
16666;DHT22;8446;50.998;6.250;2023-09-19T05:12:31;14.00;99.90
16666;DHT22;8446;50.998;6.250;2023-09-19T05:14:58;13.90;99.90
16666;DHT22;8446;50.998;6.250;2023-09-19T05:17:25;14.00;99.90
16666;DHT22;8446;50.998;6.250;2023-09-19T05:19:52;14.00;99.90
16666;DHT22;8446;50.998;6.250;2023-09-19T05:22:19;14.00;99.90
16666;DHT22;8446;50.998;6.250;2023-09-19T05:24:46;14.00;99.90
16666;DHT22;8446;50.998;6.250;2023-09-19T05:27:15;14.00;99.90
16666;DHT22;8446;50.998;6.250;2023-09-19T05:29:42;14.00;99.90
16666;DHT22;8446;50.998;6.250;2023-09-19T05:32:09;14.00;99.90
16666;DHT22;8446;50.998;6.250;2023-09-19T05:34:37;14.00;99.90
16666;DHT22;8446;50.998;6.250;2023-09-19T05:37:04;14.00;99.90
16666;DHT22;8446;50.998;6.250;2023-09-19T05:39:32;13.90;99.90
16666;DHT22;8446;50.998;6.250;2023-09-19T05:41:59;13.90;99.90
16666;DHT22;8446;50.998;6.250;2023-09-19T05:44:28;14.00;99.90
16666;DHT22;8446;50.998;6.250;2023-09-19T05:46:54;14.00;99.90
16666;DHT22;8446;50.998;6.250;2023-09-19T05:49:22;14.00;99.90
16666;DHT22;8446;50.998;6.250;2023-09-19T05:51:50;14.00;99.90
16666;DHT22;8446;50.998;6.250;2023-09-19T05:54:19;14.00;99.90
16666;DHT22;8446;50.998;6.250;2023-09-19T05:56:46;13.90;99.90
16666;DHT22;8446;50.998;6.250;2023-09-19T05:59:14;13.90;99.90
16666;DHT22;8446;50.998;6.250;2023-09-19T06:01:43;13.90;99.90
16666;DHT22;8446;50.998;6.250;2023-09-19T06:04:10;13.90;99.90
16666;DHT22;8446;50.998;6.250;2023-09-19T06:06:37;13.90;99.90
16666;DHT22;8446;50.998;6.250;2023-09-19T06:09:05;13.90;99.90
16666;DHT22;8446;50.998;6.250;2023-09-19T06:11:34;14.00;99.90
16666;DHT22;8446;50.998;6.250;2023-09-19T06:14:00;14.00;99.90
16666;DHT22;8446;50.998;6.250;2023-09-19T06:16:28;13.90;99.90
16666;DHT22;8446;50.998;6.250;2023-09-19T06:18:56;14.00;99.90
16666;DHT22;8446;50.998;6.250;2023-09-19T06:21:25;14.00;99.90
16666;DHT22;8446;50.998;6.250;2023-09-19T06:23:53;14.10;99.90
16666;DHT22;8446;50.998;6.250;2023-09-19T06:26:20;14.10;99.90
16666;DHT22;8446;50.998;6.250;2023-09-19T06:28:47;14.10;99.90
16666;DHT22;8446;50.998;6.250;2023-09-19T06:31:14;14.00;99.90
16666;DHT22;8446;50.998;6.250;2023-09-19T06:33:41;14.00;99.90
16666;DHT22;8446;50.998;6.250;2023-09-19T06:36:10;14.10;99.90
16666;DHT22;8446;50.998;6.250;2023-09-19T06:38:37;14.10;99.90
16666;DHT22;8446;50.998;6.250;2023-09-19T06:41:05;14.20;99.90
16666;DHT22;8446;50.998;6.250;2023-09-19T06:43:32;14.20;99.90
16666;DHT22;8446;50.998;6.250;2023-09-19T06:46:00;14.20;99.90
16666;DHT22;8446;50.998;6.250;2023-09-19T06:48:27;14.30;99.90
16666;DHT22;8446;50.998;6.250;2023-09-19T06:50:56;14.30;99.90
16666;DHT22;8446;50.998;6.250;2023-09-19T06:53:25;14.30;99.90
16666;DHT22;8446;50.998;6.250;2023-09-19T06:55:55;14.30;99.90
16666;DHT22;8446;50.998;6.250;2023-09-19T06:58:25;14.40;99.90
16666;DHT22;8446;50.998;6.250;2023-09-19T07:01:00;14.40;99.90
16666;DHT22;8446;50.998;6.250;2023-09-19T07:03:27;14.50;99.90
16666;DHT22;8446;50.998;6.250;2023-09-19T07:05:54;14.40;99.90
16666;DHT22;8446;50.998;6.250;2023-09-19T07:08:21;14.40;99.90
16666;DHT22;8446;50.998;6.250;2023-09-19T07:10:49;14.50;99.90
16666;DHT22;8446;50.998;6.250;2023-09-19T07:13:19;14.50;99.90
16666;DHT22;8446;50.998;6.250;2023-09-19T07:15:46;14.60;99.90
16666;DHT22;8446;50.998;6.250;2023-09-19T07:18:13;14.60;99.90
16666;DHT22;8446;50.998;6.250;2023-09-19T07:20:42;14.60;99.90
16666;DHT22;8446;50.998;6.250;2023-09-19T07:23:14;14.70;99.90
16666;DHT22;8446;50.998;6.250;2023-09-19T07:25:41;14.80;99.90
16666;DHT22;8446;50.998;6.250;2023-09-19T07:28:09;14.90;99.90
16666;DHT22;8446;50.998;6.250;2023-09-19T07:30:36;14.90;99.90
16666;DHT22;8446;50.998;6.250;2023-09-19T07:33:04;15.00;99.90
16666;DHT22;8446;50.998;6.250;2023-09-19T07:35:31;15.00;99.90
16666;DHT22;8446;50.998;6.250;2023-09-19T07:37:58;15.00;99.90
16666;DHT22;8446;50.998;6.250;2023-09-19T07:40:27;15.10;99.90
16666;DHT22;8446;50.998;6.250;2023-09-19T07:42:54;15.10;99.90
16666;DHT22;8446;50.998;6.250;2023-09-19T07:45:23;15.10;99.90
16666;DHT22;8446;50.998;6.250;2023-09-19T07:47:51;15.10;99.90
16666;DHT22;8446;50.998;6.250;2023-09-19T07:50:18;15.20;99.90
16666;DHT22;8446;50.998;6.250;2023-09-19T07:52:46;15.20;99.90
16666;DHT22;8446;50.998;6.250;2023-09-19T07:55:13;15.30;99.90
16666;DHT22;8446;50.998;6.250;2023-09-19T07:57:41;15.30;99.90
16666;DHT22;8446;50.998;6.250;2023-09-19T08:00:10;15.40;99.90
16666;DHT22;8446;50.998;6.250;2023-09-19T08:02:39;15.40;99.90
16666;DHT22;8446;50.998;6.250;2023-09-19T08:05:07;15.50;99.90
16666;DHT22;8446;50.998;6.250;2023-09-19T08:07:37;15.50;99.90
16666;DHT22;8446;50.998;6.250;2023-09-19T08:10:04;15.50;99.90
16666;DHT22;8446;50.998;6.250;2023-09-19T08:12:33;15.70;99.90
16666;DHT22;8446;50.998;6.250;2023-09-19T08:15:01;15.70;99.90
16666;DHT22;8446;50.998;6.250;2023-09-19T08:17:29;15.70;99.90
16666;DHT22;8446;50.998;6.250;2023-09-19T08:20:01;15.70;99.90
16666;DHT22;8446;50.998;6.250;2023-09-19T08:22:30;15.90;99.90
16666;DHT22;8446;50.998;6.250;2023-09-19T08:24:57;15.80;99.90
16666;DHT22;8446;50.998;6.250;2023-09-19T08:27:24;15.90;99.90
16666;DHT22;8446;50.998;6.250;2023-09-19T08:29:52;15.90;99.90
16666;DHT22;8446;50.998;6.250;2023-09-19T08:32:19;16.00;99.90
16666;DHT22;8446;50.998;6.250;2023-09-19T08:34:49;15.90;99.90
16666;DHT22;8446;50.998;6.250;2023-09-19T08:37:18;16.10;99.90
16666;DHT22;8446;50.998;6.250;2023-09-19T08:39:44;16.10;99.90
16666;DHT22;8446;50.998;6.250;2023-09-19T08:42:11;16.00;99.90
16666;DHT22;8446;50.998;6.250;2023-09-19T08:44:39;16.10;99.90
16666;DHT22;8446;50.998;6.250;2023-09-19T08:47:09;16.30;99.90
16666;DHT22;8446;50.998;6.250;2023-09-19T08:49:43;16.20;99.90
16666;DHT22;8446;50.998;6.250;2023-09-19T08:52:22;16.30;99.90
16666;DHT22;8446;50.998;6.250;2023-09-19T08:54:52;16.30;99.90
16666;DHT22;8446;50.998;6.250;2023-09-19T08:57:20;16.30;99.90
16666;DHT22;8446;50.998;6.250;2023-09-19T08:59:48;16.30;99.90
16666;DHT22;8446;50.998;6.250;2023-09-19T09:02:16;16.40;99.90
16666;DHT22;8446;50.998;6.250;2023-09-19T09:04:45;16.50;99.90
16666;DHT22;8446;50.998;6.250;2023-09-19T09:07:12;16.60;99.90
16666;DHT22;8446;50.998;6.250;2023-09-19T09:09:41;16.50;99.90
16666;DHT22;8446;50.998;6.250;2023-09-19T09:12:11;16.60;99.90
16666;DHT22;8446;50.998;6.250;2023-09-19T09:14:39;16.90;99.90
16666;DHT22;8446;50.998;6.250;2023-09-19T09:17:07;16.80;99.90
16666;DHT22;8446;50.998;6.250;2023-09-19T09:19:34;16.70;99.90
16666;DHT22;8446;50.998;6.250;2023-09-19T09:22:08;16.70;99.90
16666;DHT22;8446;50.998;6.250;2023-09-19T09:24:35;16.80;99.90
16666;DHT22;8446;50.998;6.250;2023-09-19T09:27:05;16.90;99.90
16666;DHT22;8446;50.998;6.250;2023-09-19T09:29:45;16.90;99.90
16666;DHT22;8446;50.998;6.250;2023-09-19T09:32:19;17.00;99.90
16666;DHT22;8446;50.998;6.250;2023-09-19T09:34:47;16.80;99.90
16666;DHT22;8446;50.998;6.250;2023-09-19T09:37:15;16.90;99.90
16666;DHT22;8446;50.998;6.250;2023-09-19T09:39:49;16.90;99.90
16666;DHT22;8446;50.998;6.250;2023-09-19T09:42:31;17.00;99.90
16666;DHT22;8446;50.998;6.250;2023-09-19T09:45:17;17.00;99.90
16666;DHT22;8446;50.998;6.250;2023-09-19T09:47:45;17.20;99.90
16666;DHT22;8446;50.998;6.250;2023-09-19T09:50:30;17.40;99.90
16666;DHT22;8446;50.998;6.250;2023-09-19T09:53:23;17.30;99.90
16666;DHT22;8446;50.998;6.250;2023-09-19T09:56:00;17.20;99.90
16666;DHT22;8446;50.998;6.250;2023-09-19T09:58:29;17.20;99.90
16666;DHT22;8446;50.998;6.250;2023-09-19T10:00:57;17.50;99.90
16666;DHT22;8446;50.998;6.250;2023-09-19T10:03:32;17.50;99.90
16666;DHT22;8446;50.998;6.250;2023-09-19T10:06:04;17.60;99.90
16666;DHT22;8446;50.998;6.250;2023-09-19T10:08:58;17.50;99.90
16666;DHT22;8446;50.998;6.250;2023-09-19T10:11:30;17.40;99.90
16666;DHT22;8446;50.998;6.250;2023-09-19T10:14:00;17.60;99.90
16666;DHT22;8446;50.998;6.250;2023-09-19T10:16:29;17.40;99.90
16666;DHT22;8446;50.998;6.250;2023-09-19T10:19:00;17.20;99.90
16666;DHT22;8446;50.998;6.250;2023-09-19T10:21:28;17.20;99.90
16666;DHT22;8446;50.998;6.250;2023-09-19T10:23:58;17.20;99.90
16666;DHT22;8446;50.998;6.250;2023-09-19T10:26:26;17.20;99.90
16666;DHT22;8446;50.998;6.250;2023-09-19T10:28:58;17.30;99.90
16666;DHT22;8446;50.998;6.250;2023-09-19T10:31:28;17.40;99.90
16666;DHT22;8446;50.998;6.250;2023-09-19T10:33:55;17.20;99.90
16666;DHT22;8446;50.998;6.250;2023-09-19T10:36:24;17.30;99.90
16666;DHT22;8446;50.998;6.250;2023-09-19T10:38:53;17.20;99.90
16666;DHT22;8446;50.998;6.250;2023-09-19T10:41:22;17.20;99.90
16666;DHT22;8446;50.998;6.250;2023-09-19T10:43:51;17.20;99.90
16666;DHT22;8446;50.998;6.250;2023-09-19T10:46:21;17.30;99.90
16666;DHT22;8446;50.998;6.250;2023-09-19T10:48:53;17.20;99.90
16666;DHT22;8446;50.998;6.250;2023-09-19T10:51:28;17.20;99.90
16666;DHT22;8446;50.998;6.250;2023-09-19T10:54:01;17.20;99.90
16666;DHT22;8446;50.998;6.250;2023-09-19T10:56:31;17.20;99.90
16666;DHT22;8446;50.998;6.250;2023-09-19T10:59:09;17.30;99.90
16666;DHT22;8446;50.998;6.250;2023-09-19T11:01:44;17.40;99.90
16666;DHT22;8446;50.998;6.250;2023-09-19T11:04:23;17.40;99.90
16666;DHT22;8446;50.998;6.250;2023-09-19T11:07:03;17.30;99.90
16666;DHT22;8446;50.998;6.250;2023-09-19T11:09:44;17.20;99.90
16666;DHT22;8446;50.998;6.250;2023-09-19T11:12:12;17.30;99.90
16666;DHT22;8446;50.998;6.250;2023-09-19T11:14:41;17.30;99.90
16666;DHT22;8446;50.998;6.250;2023-09-19T11:17:41;17.50;99.90
16666;DHT22;8446;50.998;6.250;2023-09-19T11:20:21;17.80;99.90
16666;DHT22;8446;50.998;6.250;2023-09-19T11:23:20;18.00;99.90
16666;DHT22;8446;50.998;6.250;2023-09-19T11:25:50;18.00;99.90
16666;DHT22;8446;50.998;6.250;2023-09-19T11:28:34;18.10;99.90
16666;DHT22;8446;50.998;6.250;2023-09-19T11:34:48;18.10;99.90
16666;DHT22;8446;50.998;6.250;2023-09-19T11:40:25;18.20;99.90
16666;DHT22;8446;50.998;6.250;2023-09-19T11:42:53;18.60;99.90
16666;DHT22;8446;50.998;6.250;2023-09-19T11:48:26;18.60;99.90
16666;DHT22;8446;50.998;6.250;2023-09-19T11:50:56;18.50;99.90
16666;DHT22;8446;50.998;6.250;2023-09-19T11:53:31;18.50;99.90
16666;DHT22;8446;50.998;6.250;2023-09-19T11:55:59;18.70;99.90
16666;DHT22;8446;50.998;6.250;2023-09-19T11:58:27;18.80;99.90
16666;DHT22;8446;50.998;6.250;2023-09-19T12:00:55;18.70;99.90
16666;DHT22;8446;50.998;6.250;2023-09-19T12:03:29;18.90;99.90
16666;DHT22;8446;50.998;6.250;2023-09-19T12:05:58;18.90;99.90
16666;DHT22;8446;50.998;6.250;2023-09-19T12:08:25;19.00;99.90
16666;DHT22;8446;50.998;6.250;2023-09-19T12:10:53;18.70;99.90
16666;DHT22;8446;50.998;6.250;2023-09-19T12:13:20;18.90;99.90
16666;DHT22;8446;50.998;6.250;2023-09-19T12:15:47;18.80;99.90
16666;DHT22;8446;50.998;6.250;2023-09-19T12:18:27;19.00;99.90
16666;DHT22;8446;50.998;6.250;2023-09-19T12:20:55;19.20;99.90
16666;DHT22;8446;50.998;6.250;2023-09-19T12:23:24;18.90;99.90
16666;DHT22;8446;50.998;6.250;2023-09-19T12:25:52;19.10;99.90
16666;DHT22;8446;50.998;6.250;2023-09-19T12:28:23;19.10;99.90
16666;DHT22;8446;50.998;6.250;2023-09-19T12:30:53;19.00;99.90
16666;DHT22;8446;50.998;6.250;2023-09-19T12:33:21;19.30;99.90
16666;DHT22;8446;50.998;6.250;2023-09-19T12:35:52;19.40;99.90
16666;DHT22;8446;50.998;6.250;2023-09-19T12:38:25;19.70;99.90
16666;DHT22;8446;50.998;6.250;2023-09-19T12:40:55;19.40;99.90
16666;DHT22;8446;50.998;6.250;2023-09-19T12:43:22;19.40;99.90
16666;DHT22;8446;50.998;6.250;2023-09-19T12:45:49;19.30;99.90
16666;DHT22;8446;50.998;6.250;2023-09-19T12:48:22;19.20;99.90
16666;DHT22;8446;50.998;6.250;2023-09-19T12:51:01;19.40;99.90
16666;DHT22;8446;50.998;6.250;2023-09-19T12:53:32;19.30;99.90
16666;DHT22;8446;50.998;6.250;2023-09-19T12:56:01;19.00;99.90
16666;DHT22;8446;50.998;6.250;2023-09-19T12:58:32;19.10;99.90
16666;DHT22;8446;50.998;6.250;2023-09-19T13:01:00;19.40;99.90
16666;DHT22;8446;50.998;6.250;2023-09-19T13:03:28;19.30;99.90
16666;DHT22;8446;50.998;6.250;2023-09-19T13:06:01;19.30;99.90
16666;DHT22;8446;50.998;6.250;2023-09-19T13:08:30;19.50;99.90
16666;DHT22;8446;50.998;6.250;2023-09-19T13:11:04;19.40;99.90
16666;DHT22;8446;50.998;6.250;2023-09-19T13:13:36;19.60;99.90
16666;DHT22;8446;50.998;6.250;2023-09-19T13:16:04;19.50;99.90
16666;DHT22;8446;50.998;6.250;2023-09-19T13:18:42;19.70;99.90
16666;DHT22;8446;50.998;6.250;2023-09-19T13:21:11;19.50;99.90
16666;DHT22;8446;50.998;6.250;2023-09-19T13:23:42;19.40;99.90
16666;DHT22;8446;50.998;6.250;2023-09-19T13:26:10;19.00;99.90
16666;DHT22;8446;50.998;6.250;2023-09-19T13:28:38;18.80;99.90
16666;DHT22;8446;50.998;6.250;2023-09-19T13:31:05;18.70;99.90
16666;DHT22;8446;50.998;6.250;2023-09-19T13:33:33;18.60;99.90
16666;DHT22;8446;50.998;6.250;2023-09-19T13:36:01;18.70;99.90
16666;DHT22;8446;50.998;6.250;2023-09-19T13:38:28;18.80;99.90
16666;DHT22;8446;50.998;6.250;2023-09-19T13:40:54;18.70;99.90
16666;DHT22;8446;50.998;6.250;2023-09-19T13:43:23;18.80;99.90
16666;DHT22;8446;50.998;6.250;2023-09-19T13:45:50;18.70;99.90
16666;DHT22;8446;50.998;6.250;2023-09-19T13:48:17;18.60;99.90
16666;DHT22;8446;50.998;6.250;2023-09-19T13:50:48;18.70;99.90
16666;DHT22;8446;50.998;6.250;2023-09-19T13:53:15;18.70;99.90
16666;DHT22;8446;50.998;6.250;2023-09-19T13:55:43;18.60;99.90
16666;DHT22;8446;50.998;6.250;2023-09-19T13:58:10;19.10;99.90
16666;DHT22;8446;50.998;6.250;2023-09-19T14:00:39;19.30;99.90
16666;DHT22;8446;50.998;6.250;2023-09-19T14:03:06;19.10;99.90
16666;DHT22;8446;50.998;6.250;2023-09-19T14:05:33;18.90;99.90
16666;DHT22;8446;50.998;6.250;2023-09-19T14:08:00;19.10;99.90
16666;DHT22;8446;50.998;6.250;2023-09-19T14:10:28;19.10;99.90
16666;DHT22;8446;50.998;6.250;2023-09-19T14:12:57;19.10;99.90
16666;DHT22;8446;50.998;6.250;2023-09-19T14:15:25;19.00;99.90
16666;DHT22;8446;50.998;6.250;2023-09-19T14:17:57;18.90;99.90
16666;DHT22;8446;50.998;6.250;2023-09-19T14:20:25;18.80;99.90
16666;DHT22;8446;50.998;6.250;2023-09-19T14:22:53;18.80;99.90
16666;DHT22;8446;50.998;6.250;2023-09-19T14:25:21;18.70;99.90
16666;DHT22;8446;50.998;6.250;2023-09-19T14:27:47;18.60;99.90
16666;DHT22;8446;50.998;6.250;2023-09-19T14:30:14;18.50;99.90
16666;DHT22;8446;50.998;6.250;2023-09-19T14:32:41;18.50;99.90
16666;DHT22;8446;50.998;6.250;2023-09-19T14:35:09;18.50;99.90
16666;DHT22;8446;50.998;6.250;2023-09-19T14:37:39;18.50;99.90
16666;DHT22;8446;50.998;6.250;2023-09-19T14:40:07;18.40;99.90
16666;DHT22;8446;50.998;6.250;2023-09-19T14:42:38;18.50;99.90
16666;DHT22;8446;50.998;6.250;2023-09-19T14:45:06;18.50;99.90
16666;DHT22;8446;50.998;6.250;2023-09-19T14:47:33;18.50;99.90
16666;DHT22;8446;50.998;6.250;2023-09-19T14:50:01;18.50;99.90
16666;DHT22;8446;50.998;6.250;2023-09-19T14:52:29;18.50;99.90
16666;DHT22;8446;50.998;6.250;2023-09-19T14:54:56;18.60;99.90
16666;DHT22;8446;50.998;6.250;2023-09-19T14:57:23;18.50;99.90
16666;DHT22;8446;50.998;6.250;2023-09-19T14:59:51;18.60;99.90
16666;DHT22;8446;50.998;6.250;2023-09-19T15:02:18;18.60;99.90
16666;DHT22;8446;50.998;6.250;2023-09-19T15:04:45;18.60;99.90
16666;DHT22;8446;50.998;6.250;2023-09-19T15:07:13;18.50;99.90
16666;DHT22;8446;50.998;6.250;2023-09-19T15:09:41;18.50;99.90
16666;DHT22;8446;50.998;6.250;2023-09-19T15:12:09;18.50;99.90
16666;DHT22;8446;50.998;6.250;2023-09-19T15:14:36;18.50;99.90
16666;DHT22;8446;50.998;6.250;2023-09-19T15:17:03;18.50;99.90
16666;DHT22;8446;50.998;6.250;2023-09-19T15:19:31;18.50;99.90
16666;DHT22;8446;50.998;6.250;2023-09-19T15:21:57;18.50;99.90
16666;DHT22;8446;50.998;6.250;2023-09-19T15:24:25;18.40;99.90
16666;DHT22;8446;50.998;6.250;2023-09-19T15:26:54;18.50;99.90
16666;DHT22;8446;50.998;6.250;2023-09-19T15:29:21;18.40;99.90
16666;DHT22;8446;50.998;6.250;2023-09-19T15:31:49;18.40;99.90
16666;DHT22;8446;50.998;6.250;2023-09-19T15:34:15;18.40;99.90
16666;DHT22;8446;50.998;6.250;2023-09-19T15:36:42;18.40;99.90
16666;DHT22;8446;50.998;6.250;2023-09-19T15:39:10;18.50;99.90
16666;DHT22;8446;50.998;6.250;2023-09-19T15:41:38;18.70;99.90
16666;DHT22;8446;50.998;6.250;2023-09-19T15:44:18;18.80;99.90
16666;DHT22;8446;50.998;6.250;2023-09-19T15:46:46;18.90;99.90
16666;DHT22;8446;50.998;6.250;2023-09-19T15:49:14;19.40;99.90
16666;DHT22;8446;50.998;6.250;2023-09-19T15:51:41;19.50;99.90
16666;DHT22;8446;50.998;6.250;2023-09-19T15:54:10;19.30;99.90
16666;DHT22;8446;50.998;6.250;2023-09-19T15:56:39;19.00;99.90
16666;DHT22;8446;50.998;6.250;2023-09-19T15:59:08;19.40;99.90
16666;DHT22;8446;50.998;6.250;2023-09-19T16:01:35;19.40;99.90
16666;DHT22;8446;50.998;6.250;2023-09-19T16:04:04;19.30;99.90
16666;DHT22;8446;50.998;6.250;2023-09-19T16:06:34;19.20;99.90
16666;DHT22;8446;50.998;6.250;2023-09-19T16:09:02;19.10;99.90